sensor_id;sensor_type;location;lat;lon;timestamp;P1;durP1;ratioP1;P2;durP2;ratioP2
47309;SDS011;33046;52.270;6.832;2023-03-23T00:01:59;6.20;;;2.60;;
47309;SDS011;33046;52.270;6.832;2023-03-23T00:04:05;5.22;;;2.65;;
47309;SDS011;33046;52.270;6.832;2023-03-23T00:06:10;5.70;;;2.75;;
47309;SDS011;33046;52.270;6.832;2023-03-23T00:08:16;5.97;;;2.33;;
47309;SDS011;33046;52.270;6.832;2023-03-23T00:10:22;5.05;;;2.78;;
47309;SDS011;33046;52.270;6.832;2023-03-23T00:12:29;5.97;;;3.03;;
47309;SDS011;33046;52.270;6.832;2023-03-23T00:14:36;6.50;;;3.10;;
47309;SDS011;33046;52.270;6.832;2023-03-23T00:16:42;3.40;;;2.22;;
47309;SDS011;33046;52.270;6.832;2023-03-23T00:18:50;3.83;;;2.35;;
47309;SDS011;33046;52.270;6.832;2023-03-23T00:20:56;9.23;;;2.88;;
47309;SDS011;33046;52.270;6.832;2023-03-23T00:23:02;5.70;;;2.63;;
47309;SDS011;33046;52.270;6.832;2023-03-23T00:25:08;5.78;;;2.63;;
47309;SDS011;33046;52.270;6.832;2023-03-23T00:27:14;7.65;;;2.97;;
47309;SDS011;33046;52.270;6.832;2023-03-23T00:29:21;7.15;;;2.33;;
47309;SDS011;33046;52.270;6.832;2023-03-23T00:31:30;6.68;;;2.67;;
47309;SDS011;33046;52.270;6.832;2023-03-23T00:33:37;4.93;;;2.47;;
47309;SDS011;33046;52.270;6.832;2023-03-23T00:35:44;4.13;;;2.28;;
47309;SDS011;33046;52.270;6.832;2023-03-23T00:37:50;3.45;;;1.85;;
47309;SDS011;33046;52.270;6.832;2023-03-23T00:39:55;4.60;;;2.70;;
47309;SDS011;33046;52.270;6.832;2023-03-23T00:42:01;5.25;;;2.45;;
47309;SDS011;33046;52.270;6.832;2023-03-23T00:44:07;2.75;;;1.90;;
47309;SDS011;33046;52.270;6.832;2023-03-23T00:46:13;3.00;;;2.13;;
47309;SDS011;33046;52.270;6.832;2023-03-23T00:48:19;4.25;;;2.03;;
47309;SDS011;33046;52.270;6.832;2023-03-23T00:50:26;5.10;;;2.65;;
47309;SDS011;33046;52.270;6.832;2023-03-23T00:52:33;3.50;;;2.47;;
47309;SDS011;33046;52.270;6.832;2023-03-23T00:54:39;3.25;;;2.30;;
47309;SDS011;33046;52.270;6.832;2023-03-23T00:56:44;4.65;;;2.38;;
47309;SDS011;33046;52.270;6.832;2023-03-23T00:58:50;4.93;;;2.03;;
47309;SDS011;33046;52.270;6.832;2023-03-23T01:00:56;3.40;;;2.22;;
47309;SDS011;33046;52.270;6.832;2023-03-23T01:03:02;2.67;;;1.83;;
47309;SDS011;33046;52.270;6.832;2023-03-23T01:05:09;3.25;;;1.70;;
47309;SDS011;33046;52.270;6.832;2023-03-23T01:07:15;6.65;;;2.30;;
47309;SDS011;33046;52.270;6.832;2023-03-23T01:09:22;3.85;;;1.92;;
47309;SDS011;33046;52.270;6.832;2023-03-23T01:11:28;5.50;;;2.22;;
47309;SDS011;33046;52.270;6.832;2023-03-23T01:13:34;4.65;;;2.08;;
47309;SDS011;33046;52.270;6.832;2023-03-23T01:15:39;3.67;;;1.75;;
47309;SDS011;33046;52.270;6.832;2023-03-23T01:17:46;3.13;;;2.00;;
47309;SDS011;33046;52.270;6.832;2023-03-23T01:19:51;2.58;;;1.98;;
47309;SDS011;33046;52.270;6.832;2023-03-23T01:21:57;3.20;;;2.13;;
47309;SDS011;33046;52.270;6.832;2023-03-23T01:24:03;3.65;;;2.20;;
47309;SDS011;33046;52.270;6.832;2023-03-23T01:26:11;4.45;;;2.17;;
47309;SDS011;33046;52.270;6.832;2023-03-23T01:28:18;5.57;;;3.03;;
47309;SDS011;33046;52.270;6.832;2023-03-23T01:30:24;3.63;;;1.88;;
47309;SDS011;33046;52.270;6.832;2023-03-23T01:32:31;2.35;;;1.60;;
47309;SDS011;33046;52.270;6.832;2023-03-23T01:34:37;2.67;;;1.70;;
47309;SDS011;33046;52.270;6.832;2023-03-23T01:36:42;3.03;;;1.70;;
47309;SDS011;33046;52.270;6.832;2023-03-23T01:38:49;3.22;;;1.67;;
47309;SDS011;33046;52.270;6.832;2023-03-23T01:40:55;3.70;;;1.90;;
47309;SDS011;33046;52.270;6.832;2023-03-23T01:43:02;5.53;;;2.28;;
47309;SDS011;33046;52.270;6.832;2023-03-23T01:47:34;3.92;;;2.03;;
47309;SDS011;33046;52.270;6.832;2023-03-23T01:49:41;4.88;;;1.88;;
47309;SDS011;33046;52.270;6.832;2023-03-23T01:51:51;2.90;;;1.55;;
47309;SDS011;33046;52.270;6.832;2023-03-23T01:54:01;2.92;;;1.58;;
47309;SDS011;33046;52.270;6.832;2023-03-23T01:56:09;4.32;;;1.70;;
47309;SDS011;33046;52.270;6.832;2023-03-23T01:58:19;5.20;;;2.13;;
47309;SDS011;33046;52.270;6.832;2023-03-23T02:00:28;5.22;;;2.17;;
47309;SDS011;33046;52.270;6.832;2023-03-23T02:02:34;4.13;;;1.95;;
47309;SDS011;33046;52.270;6.832;2023-03-23T02:04:41;2.70;;;1.77;;
47309;SDS011;33046;52.270;6.832;2023-03-23T02:06:48;5.60;;;1.80;;
47309;SDS011;33046;52.270;6.832;2023-03-23T02:08:58;7.03;;;2.47;;
47309;SDS011;33046;52.270;6.832;2023-03-23T02:11:10;3.45;;;1.80;;
47309;SDS011;33046;52.270;6.832;2023-03-23T02:13:18;2.85;;;1.38;;
47309;SDS011;33046;52.270;6.832;2023-03-23T02:15:27;2.17;;;1.83;;
47309;SDS011;33046;52.270;6.832;2023-03-23T02:17:39;2.65;;;1.70;;
47309;SDS011;33046;52.270;6.832;2023-03-23T02:19:57;3.90;;;1.70;;
47309;SDS011;33046;52.270;6.832;2023-03-23T02:24:55;4.45;;;2.88;;
47309;SDS011;33046;52.270;6.832;2023-03-23T02:27:06;2.58;;;1.58;;
47309;SDS011;33046;52.270;6.832;2023-03-23T02:29:30;2.35;;;1.63;;
47309;SDS011;33046;52.270;6.832;2023-03-23T02:32:03;3.05;;;1.60;;
47309;SDS011;33046;52.270;6.832;2023-03-23T02:34:17;3.08;;;1.65;;
47309;SDS011;33046;52.270;6.832;2023-03-23T02:36:28;3.08;;;1.85;;
47309;SDS011;33046;52.270;6.832;2023-03-23T02:38:40;2.65;;;1.55;;
47309;SDS011;33046;52.270;6.832;2023-03-23T02:40:49;3.33;;;1.70;;
47309;SDS011;33046;52.270;6.832;2023-03-23T02:42:56;3.95;;;1.65;;
47309;SDS011;33046;52.270;6.832;2023-03-23T02:45:04;3.72;;;1.60;;
47309;SDS011;33046;52.270;6.832;2023-03-23T02:47:13;2.70;;;1.55;;
47309;SDS011;33046;52.270;6.832;2023-03-23T02:49:24;3.17;;;1.50;;
47309;SDS011;33046;52.270;6.832;2023-03-23T02:51:33;2.70;;;1.40;;
47309;SDS011;33046;52.270;6.832;2023-03-23T02:53:42;4.05;;;1.95;;
47309;SDS011;33046;52.270;6.832;2023-03-23T02:55:49;2.60;;;1.70;;
47309;SDS011;33046;52.270;6.832;2023-03-23T02:57:59;4.70;;;1.80;;
47309;SDS011;33046;52.270;6.832;2023-03-23T03:00:06;1.98;;;1.58;;
47309;SDS011;33046;52.270;6.832;2023-03-23T03:02:13;2.30;;;1.67;;
47309;SDS011;33046;52.270;6.832;2023-03-23T03:04:24;2.40;;;1.50;;
47309;SDS011;33046;52.270;6.832;2023-03-23T03:06:33;5.55;;;1.90;;
47309;SDS011;33046;52.270;6.832;2023-03-23T03:08:46;2.38;;;1.65;;
47309;SDS011;33046;52.270;6.832;2023-03-23T03:10:57;4.40;;;2.28;;
47309;SDS011;33046;52.270;6.832;2023-03-23T03:13:11;4.18;;;2.08;;
47309;SDS011;33046;52.270;6.832;2023-03-23T03:15:25;2.33;;;1.60;;
47309;SDS011;33046;52.270;6.832;2023-03-23T03:17:34;3.05;;;2.03;;
47309;SDS011;33046;52.270;6.832;2023-03-23T03:19:47;4.10;;;1.70;;
47309;SDS011;33046;52.270;6.832;2023-03-23T03:21:56;5.03;;;2.15;;
47309;SDS011;33046;52.270;6.832;2023-03-23T03:24:14;4.38;;;2.28;;
47309;SDS011;33046;52.270;6.832;2023-03-23T03:26:25;2.20;;;1.92;;
47309;SDS011;33046;52.270;6.832;2023-03-23T03:28:37;3.73;;;1.93;;
47309;SDS011;33046;52.270;6.832;2023-03-23T03:30:43;3.20;;;2.03;;
47309;SDS011;33046;52.270;6.832;2023-03-23T03:32:51;2.40;;;2.00;;
47309;SDS011;33046;52.270;6.832;2023-03-23T03:35:00;1.70;;;1.60;;
47309;SDS011;33046;52.270;6.832;2023-03-23T03:37:06;2.53;;;1.80;;
47309;SDS011;33046;52.270;6.832;2023-03-23T03:39:14;4.60;;;2.45;;
47309;SDS011;33046;52.270;6.832;2023-03-23T03:41:22;4.28;;;2.05;;
47309;SDS011;33046;52.270;6.832;2023-03-23T03:43:28;4.20;;;2.35;;
47309;SDS011;33046;52.270;6.832;2023-03-23T03:45:34;3.67;;;2.10;;
47309;SDS011;33046;52.270;6.832;2023-03-23T03:47:40;3.58;;;2.17;;
47309;SDS011;33046;52.270;6.832;2023-03-23T03:49:46;3.25;;;2.45;;
47309;SDS011;33046;52.270;6.832;2023-03-23T03:51:53;2.75;;;1.92;;
47309;SDS011;33046;52.270;6.832;2023-03-23T03:54:15;3.30;;;1.77;;
47309;SDS011;33046;52.270;6.832;2023-03-23T03:56:21;3.55;;;2.17;;
47309;SDS011;33046;52.270;6.832;2023-03-23T03:58:39;3.35;;;2.28;;
47309;SDS011;33046;52.270;6.832;2023-03-23T04:00:55;4.45;;;2.05;;
47309;SDS011;33046;52.270;6.832;2023-03-23T04:03:04;2.80;;;2.10;;
47309;SDS011;33046;52.270;6.832;2023-03-23T04:05:32;3.65;;;1.85;;
47309;SDS011;33046;52.270;6.832;2023-03-23T04:07:40;4.18;;;1.88;;
47309;SDS011;33046;52.270;6.832;2023-03-23T04:09:46;2.88;;;2.22;;
47309;SDS011;33046;52.270;6.832;2023-03-23T04:11:53;3.45;;;2.03;;
47309;SDS011;33046;52.270;6.832;2023-03-23T04:14:34;3.10;;;1.90;;
47309;SDS011;33046;52.270;6.832;2023-03-23T04:16:40;2.50;;;1.85;;
47309;SDS011;33046;52.270;6.832;2023-03-23T04:18:46;3.80;;;2.17;;
47309;SDS011;33046;52.270;6.832;2023-03-23T04:20:52;5.88;;;2.67;;
47309;SDS011;33046;52.270;6.832;2023-03-23T04:23:01;3.05;;;2.05;;
47309;SDS011;33046;52.270;6.832;2023-03-23T04:25:07;2.92;;;1.77;;
47309;SDS011;33046;52.270;6.832;2023-03-23T04:27:15;3.65;;;2.28;;
47309;SDS011;33046;52.270;6.832;2023-03-23T04:29:21;2.38;;;2.17;;
47309;SDS011;33046;52.270;6.832;2023-03-23T04:31:39;3.05;;;1.80;;
47309;SDS011;33046;52.270;6.832;2023-03-23T04:33:53;4.65;;;3.03;;
47309;SDS011;33046;52.270;6.832;2023-03-23T04:36:01;2.83;;;2.28;;
47309;SDS011;33046;52.270;6.832;2023-03-23T04:38:16;3.80;;;2.50;;
47309;SDS011;33046;52.270;6.832;2023-03-23T04:40:25;2.88;;;1.85;;
47309;SDS011;33046;52.270;6.832;2023-03-23T04:42:44;3.05;;;2.13;;
47309;SDS011;33046;52.270;6.832;2023-03-23T04:45:09;3.92;;;2.00;;
47309;SDS011;33046;52.270;6.832;2023-03-23T04:47:17;3.28;;;2.53;;
47309;SDS011;33046;52.270;6.832;2023-03-23T04:49:31;4.00;;;2.45;;
47309;SDS011;33046;52.270;6.832;2023-03-23T04:51:49;3.92;;;2.38;;
47309;SDS011;33046;52.270;6.832;2023-03-23T04:54:03;3.45;;;2.35;;
47309;SDS011;33046;52.270;6.832;2023-03-23T04:56:11;3.33;;;2.17;;
47309;SDS011;33046;52.270;6.832;2023-03-23T04:58:22;2.75;;;2.05;;
47309;SDS011;33046;52.270;6.832;2023-03-23T05:00:48;3.30;;;2.40;;
47309;SDS011;33046;52.270;6.832;2023-03-23T05:02:56;2.50;;;1.98;;
47309;SDS011;33046;52.270;6.832;2023-03-23T05:05:06;3.25;;;2.03;;
47309;SDS011;33046;52.270;6.832;2023-03-23T05:07:13;3.30;;;2.00;;
47309;SDS011;33046;52.270;6.832;2023-03-23T05:09:26;4.07;;;2.10;;
47309;SDS011;33046;52.270;6.832;2023-03-23T05:11:33;4.80;;;2.15;;
47309;SDS011;33046;52.270;6.832;2023-03-23T05:13:39;4.95;;;2.30;;
47309;SDS011;33046;52.270;6.832;2023-03-23T05:15:46;3.42;;;2.20;;
47309;SDS011;33046;52.270;6.832;2023-03-23T05:17:52;3.78;;;2.13;;
47309;SDS011;33046;52.270;6.832;2023-03-23T05:20:00;5.20;;;1.70;;
47309;SDS011;33046;52.270;6.832;2023-03-23T05:22:14;2.78;;;1.83;;
47309;SDS011;33046;52.270;6.832;2023-03-23T05:24:28;4.25;;;2.40;;
47309;SDS011;33046;52.270;6.832;2023-03-23T05:26:34;3.28;;;2.25;;
47309;SDS011;33046;52.270;6.832;2023-03-23T05:28:53;3.30;;;2.45;;
47309;SDS011;33046;52.270;6.832;2023-03-23T05:31:03;3.35;;;2.22;;
47309;SDS011;33046;52.270;6.832;2023-03-23T05:33:11;3.42;;;2.30;;
47309;SDS011;33046;52.270;6.832;2023-03-23T05:35:25;5.18;;;2.10;;
47309;SDS011;33046;52.270;6.832;2023-03-23T05:37:31;4.50;;;2.40;;
47309;SDS011;33046;52.270;6.832;2023-03-23T05:39:47;6.30;;;2.72;;
47309;SDS011;33046;52.270;6.832;2023-03-23T05:42:17;2.78;;;1.63;;
47309;SDS011;33046;52.270;6.832;2023-03-23T05:44:33;3.05;;;2.10;;
47309;SDS011;33046;52.270;6.832;2023-03-23T05:46:39;6.20;;;2.10;;
47309;SDS011;33046;52.270;6.832;2023-03-23T05:48:45;4.45;;;2.00;;
47309;SDS011;33046;52.270;6.832;2023-03-23T05:50:55;3.80;;;2.05;;
47309;SDS011;33046;52.270;6.832;2023-03-23T05:53:02;3.60;;;1.90;;
47309;SDS011;33046;52.270;6.832;2023-03-23T05:55:12;4.85;;;2.72;;
47309;SDS011;33046;52.270;6.832;2023-03-23T05:57:20;2.92;;;2.25;;
47309;SDS011;33046;52.270;6.832;2023-03-23T05:59:30;3.78;;;1.98;;
47309;SDS011;33046;52.270;6.832;2023-03-23T06:01:38;4.00;;;2.05;;
47309;SDS011;33046;52.270;6.832;2023-03-23T06:03:44;3.97;;;2.15;;
47309;SDS011;33046;52.270;6.832;2023-03-23T06:05:56;4.70;;;1.60;;
47309;SDS011;33046;52.270;6.832;2023-03-23T06:10:16;4.30;;;1.90;;
47309;SDS011;33046;52.270;6.832;2023-03-23T06:12:26;4.40;;;2.30;;
47309;SDS011;33046;52.270;6.832;2023-03-23T06:14:52;3.60;;;1.80;;
47309;SDS011;33046;52.270;6.832;2023-03-23T06:17:04;4.47;;;1.63;;
47309;SDS011;33046;52.270;6.832;2023-03-23T06:19:10;4.38;;;2.00;;
47309;SDS011;33046;52.270;6.832;2023-03-23T06:21:21;4.13;;;1.67;;
47309;SDS011;33046;52.270;6.832;2023-03-23T06:23:32;4.63;;;1.70;;
47309;SDS011;33046;52.270;6.832;2023-03-23T06:25:40;7.28;;;2.08;;
47309;SDS011;33046;52.270;6.832;2023-03-23T06:27:46;6.40;;;1.65;;
47309;SDS011;33046;52.270;6.832;2023-03-23T06:29:52;4.13;;;1.98;;
47309;SDS011;33046;52.270;6.832;2023-03-23T06:32:00;4.25;;;2.17;;
47309;SDS011;33046;52.270;6.832;2023-03-23T06:34:08;5.22;;;1.92;;
47309;SDS011;33046;52.270;6.832;2023-03-23T06:36:32;6.32;;;1.58;;
47309;SDS011;33046;52.270;6.832;2023-03-23T06:39:04;6.32;;;1.80;;
47309;SDS011;33046;52.270;6.832;2023-03-23T06:41:35;4.25;;;1.83;;
47309;SDS011;33046;52.270;6.832;2023-03-23T06:43:40;7.10;;;3.13;;
47309;SDS011;33046;52.270;6.832;2023-03-23T06:45:58;6.15;;;1.88;;
47309;SDS011;33046;52.270;6.832;2023-03-23T06:48:36;5.78;;;2.42;;
47309;SDS011;33046;52.270;6.832;2023-03-23T06:50:44;3.42;;;1.75;;
47309;SDS011;33046;52.270;6.832;2023-03-23T06:52:51;5.80;;;1.75;;
47309;SDS011;33046;52.270;6.832;2023-03-23T06:54:57;5.35;;;1.60;;
47309;SDS011;33046;52.270;6.832;2023-03-23T06:57:04;3.75;;;1.48;;
47309;SDS011;33046;52.270;6.832;2023-03-23T06:59:10;5.68;;;1.80;;
47309;SDS011;33046;52.270;6.832;2023-03-23T07:01:18;2.97;;;1.17;;
47309;SDS011;33046;52.270;6.832;2023-03-23T07:03:32;4.63;;;1.85;;
47309;SDS011;33046;52.270;6.832;2023-03-23T07:05:39;6.30;;;1.77;;
47309;SDS011;33046;52.270;6.832;2023-03-23T07:07:47;4.80;;;1.90;;
47309;SDS011;33046;52.270;6.832;2023-03-23T07:10:13;6.13;;;1.98;;
47309;SDS011;33046;52.270;6.832;2023-03-23T07:12:20;7.63;;;1.63;;
47309;SDS011;33046;52.270;6.832;2023-03-23T07:14:27;8.60;;;2.35;;
47309;SDS011;33046;52.270;6.832;2023-03-23T07:16:33;5.53;;;2.28;;
47309;SDS011;33046;52.270;6.832;2023-03-23T07:18:39;4.32;;;1.50;;
47309;SDS011;33046;52.270;6.832;2023-03-23T07:20:46;4.75;;;1.65;;
47309;SDS011;33046;52.270;6.832;2023-03-23T07:22:54;6.43;;;2.15;;
47309;SDS011;33046;52.270;6.832;2023-03-23T07:25:17;6.45;;;1.50;;
47309;SDS011;33046;52.270;6.832;2023-03-23T07:27:35;3.17;;;1.50;;
47309;SDS011;33046;52.270;6.832;2023-03-23T07:29:42;3.17;;;1.30;;
47309;SDS011;33046;52.270;6.832;2023-03-23T07:31:54;4.25;;;1.95;;
47309;SDS011;33046;52.270;6.832;2023-03-23T07:34:00;7.63;;;2.25;;
47309;SDS011;33046;52.270;6.832;2023-03-23T07:36:17;4.55;;;1.35;;
47309;SDS011;33046;52.270;6.832;2023-03-23T07:38:22;5.50;;;1.95;;
47309;SDS011;33046;52.270;6.832;2023-03-23T07:40:29;5.13;;;1.25;;
47309;SDS011;33046;52.270;6.832;2023-03-23T07:42:42;4.47;;;1.55;;
47309;SDS011;33046;52.270;6.832;2023-03-23T07:44:48;7.00;;;1.48;;
47309;SDS011;33046;52.270;6.832;2023-03-23T07:46:54;5.40;;;1.80;;
47309;SDS011;33046;52.270;6.832;2023-03-23T07:49:08;9.73;;;2.58;;
47309;SDS011;33046;52.270;6.832;2023-03-23T07:51:22;3.65;;;1.45;;
47309;SDS011;33046;52.270;6.832;2023-03-23T07:53:29;3.20;;;1.52;;
47309;SDS011;33046;52.270;6.832;2023-03-23T07:55:48;6.80;;;1.83;;
47309;SDS011;33046;52.270;6.832;2023-03-23T08:00:19;4.22;;;1.38;;
47309;SDS011;33046;52.270;6.832;2023-03-23T08:02:27;5.03;;;1.10;;
47309;SDS011;33046;52.270;6.832;2023-03-23T08:04:50;6.90;;;1.80;;
47309;SDS011;33046;52.270;6.832;2023-03-23T08:07:08;4.75;;;1.40;;
47309;SDS011;33046;52.270;6.832;2023-03-23T08:09:34;3.70;;;1.30;;
47309;SDS011;33046;52.270;6.832;2023-03-23T08:12:06;5.28;;;1.27;;
47309;SDS011;33046;52.270;6.832;2023-03-23T08:14:31;6.47;;;1.88;;
47309;SDS011;33046;52.270;6.832;2023-03-23T08:16:45;8.20;;;1.88;;
47309;SDS011;33046;52.270;6.832;2023-03-23T08:19:05;5.43;;;2.08;;
47309;SDS011;33046;52.270;6.832;2023-03-23T08:21:37;3.42;;;1.33;;
47309;SDS011;33046;52.270;6.832;2023-03-23T08:24:11;4.90;;;1.35;;
47309;SDS011;33046;52.270;6.832;2023-03-23T08:26:55;6.07;;;1.83;;
47309;SDS011;33046;52.270;6.832;2023-03-23T08:29:16;4.32;;;1.38;;
47309;SDS011;33046;52.270;6.832;2023-03-23T08:31:29;4.93;;;1.42;;
47309;SDS011;33046;52.270;6.832;2023-03-23T08:33:43;8.38;;;1.77;;
47309;SDS011;33046;52.270;6.832;2023-03-23T08:36:09;4.50;;;1.55;;
47309;SDS011;33046;52.270;6.832;2023-03-23T08:38:38;5.70;;;1.45;;
47309;SDS011;33046;52.270;6.832;2023-03-23T08:41:19;3.33;;;1.00;;
47309;SDS011;33046;52.270;6.832;2023-03-23T08:43:34;3.75;;;1.30;;
47309;SDS011;33046;52.270;6.832;2023-03-23T08:45:59;4.60;;;0.93;;
47309;SDS011;33046;52.270;6.832;2023-03-23T08:48:23;4.82;;;1.80;;
47309;SDS011;33046;52.270;6.832;2023-03-23T08:50:55;5.68;;;0.80;;
47309;SDS011;33046;52.270;6.832;2023-03-23T08:53:19;5.88;;;0.90;;
47309;SDS011;33046;52.270;6.832;2023-03-23T08:55:25;6.00;;;0.90;;
47309;SDS011;33046;52.270;6.832;2023-03-23T08:57:55;2.15;;;0.98;;
47309;SDS011;33046;52.270;6.832;2023-03-23T09:00:12;2.97;;;0.93;;
47309;SDS011;33046;52.270;6.832;2023-03-23T09:02:40;2.90;;;0.80;;
47309;SDS011;33046;52.270;6.832;2023-03-23T09:04:59;2.10;;;0.73;;
47309;SDS011;33046;52.270;6.832;2023-03-23T09:07:10;3.60;;;0.88;;
47309;SDS011;33046;52.270;6.832;2023-03-23T09:09:17;1.77;;;0.57;;
47309;SDS011;33046;52.270;6.832;2023-03-23T09:11:22;5.97;;;0.70;;
47309;SDS011;33046;52.270;6.832;2023-03-23T09:13:28;1.95;;;0.90;;
47309;SDS011;33046;52.270;6.832;2023-03-23T09:15:34;2.75;;;0.63;;
47309;SDS011;33046;52.270;6.832;2023-03-23T09:17:40;1.58;;;0.68;;
47309;SDS011;33046;52.270;6.832;2023-03-23T09:19:48;1.00;;;0.55;;
47309;SDS011;33046;52.270;6.832;2023-03-23T09:21:55;2.15;;;0.80;;
47309;SDS011;33046;52.270;6.832;2023-03-23T09:24:01;3.38;;;0.73;;
47309;SDS011;33046;52.270;6.832;2023-03-23T09:26:07;2.95;;;1.00;;
47309;SDS011;33046;52.270;6.832;2023-03-23T09:28:13;5.95;;;1.20;;
47309;SDS011;33046;52.270;6.832;2023-03-23T09:30:22;3.10;;;1.02;;
47309;SDS011;33046;52.270;6.832;2023-03-23T09:32:29;4.68;;;1.35;;
47309;SDS011;33046;52.270;6.832;2023-03-23T09:34:35;3.00;;;1.00;;
47309;SDS011;33046;52.270;6.832;2023-03-23T09:36:40;3.80;;;1.00;;
47309;SDS011;33046;52.270;6.832;2023-03-23T09:38:48;2.92;;;0.90;;
47309;SDS011;33046;52.270;6.832;2023-03-23T09:40:55;1.85;;;0.80;;
47309;SDS011;33046;52.270;6.832;2023-03-23T09:43:25;2.67;;;0.63;;
47309;SDS011;33046;52.270;6.832;2023-03-23T09:45:43;3.67;;;0.90;;
47309;SDS011;33046;52.270;6.832;2023-03-23T09:48:02;5.80;;;1.08;;
47309;SDS011;33046;52.270;6.832;2023-03-23T09:50:17;6.20;;;1.02;;
47309;SDS011;33046;52.270;6.832;2023-03-23T09:52:27;4.97;;;1.40;;
47309;SDS011;33046;52.270;6.832;2023-03-23T09:54:44;5.13;;;0.90;;
47309;SDS011;33046;52.270;6.832;2023-03-23T09:56:52;3.72;;;1.23;;
47309;SDS011;33046;52.270;6.832;2023-03-23T09:58:59;4.63;;;1.67;;
47309;SDS011;33046;52.270;6.832;2023-03-23T10:01:12;3.80;;;1.27;;
47309;SDS011;33046;52.270;6.832;2023-03-23T10:03:24;4.25;;;1.63;;
47309;SDS011;33046;52.270;6.832;2023-03-23T10:05:33;4.50;;;1.02;;
47309;SDS011;33046;52.270;6.832;2023-03-23T10:07:40;4.63;;;1.63;;
47309;SDS011;33046;52.270;6.832;2023-03-23T10:09:47;3.97;;;1.05;;
47309;SDS011;33046;52.270;6.832;2023-03-23T10:12:06;3.70;;;1.48;;
47309;SDS011;33046;52.270;6.832;2023-03-23T10:14:24;4.90;;;1.20;;
47309;SDS011;33046;52.270;6.832;2023-03-23T10:16:37;2.92;;;1.20;;
47309;SDS011;33046;52.270;6.832;2023-03-23T10:18:46;4.20;;;0.70;;
47309;SDS011;33046;52.270;6.832;2023-03-23T10:20:57;3.28;;;1.05;;
47309;SDS011;33046;52.270;6.832;2023-03-23T10:23:13;4.22;;;1.23;;
47309;SDS011;33046;52.270;6.832;2023-03-23T10:25:23;3.50;;;0.80;;
47309;SDS011;33046;52.270;6.832;2023-03-23T10:27:33;3.53;;;0.90;;
47309;SDS011;33046;52.270;6.832;2023-03-23T10:29:48;4.47;;;1.58;;
47309;SDS011;33046;52.270;6.832;2023-03-23T10:31:59;6.85;;;0.95;;
47309;SDS011;33046;52.270;6.832;2023-03-23T10:34:08;4.50;;;1.00;;
47309;SDS011;33046;52.270;6.832;2023-03-23T10:36:19;2.47;;;0.85;;
47309;SDS011;33046;52.270;6.832;2023-03-23T10:38:31;3.43;;;0.80;;
47309;SDS011;33046;52.270;6.832;2023-03-23T10:40:47;4.55;;;0.80;;
47309;SDS011;33046;52.270;6.832;2023-03-23T10:42:54;3.83;;;0.90;;
47309;SDS011;33046;52.270;6.832;2023-03-23T10:45:10;2.90;;;0.90;;
47309;SDS011;33046;52.270;6.832;2023-03-23T10:47:19;2.53;;;0.95;;
47309;SDS011;33046;52.270;6.832;2023-03-23T10:49:26;5.20;;;1.08;;
47309;SDS011;33046;52.270;6.832;2023-03-23T10:51:34;3.17;;;1.00;;
47309;SDS011;33046;52.270;6.832;2023-03-23T10:53:42;4.50;;;1.10;;
47309;SDS011;33046;52.270;6.832;2023-03-23T10:55:51;3.80;;;1.25;;
47309;SDS011;33046;52.270;6.832;2023-03-23T10:58:00;6.03;;;1.02;;
47309;SDS011;33046;52.270;6.832;2023-03-23T11:00:15;5.00;;;1.23;;
47309;SDS011;33046;52.270;6.832;2023-03-23T11:02:24;4.00;;;1.40;;
47309;SDS011;33046;52.270;6.832;2023-03-23T11:04:30;4.45;;;1.10;;
47309;SDS011;33046;52.270;6.832;2023-03-23T11:06:36;4.47;;;1.40;;
47309;SDS011;33046;52.270;6.832;2023-03-23T11:08:50;7.50;;;1.88;;
47309;SDS011;33046;52.270;6.832;2023-03-23T11:11:08;5.50;;;1.70;;
47309;SDS011;33046;52.270;6.832;2023-03-23T11:13:17;6.20;;;1.50;;
47309;SDS011;33046;52.270;6.832;2023-03-23T11:15:25;3.83;;;0.90;;
47309;SDS011;33046;52.270;6.832;2023-03-23T11:17:35;6.82;;;1.23;;
47309;SDS011;33046;52.270;6.832;2023-03-23T11:19:41;5.22;;;1.15;;
47309;SDS011;33046;52.270;6.832;2023-03-23T11:21:47;4.18;;;1.02;;
47309;SDS011;33046;52.270;6.832;2023-03-23T11:23:55;7.10;;;1.63;;
47309;SDS011;33046;52.270;6.832;2023-03-23T11:26:07;5.20;;;1.40;;
47309;SDS011;33046;52.270;6.832;2023-03-23T11:28:18;5.18;;;1.42;;
47309;SDS011;33046;52.270;6.832;2023-03-23T11:30:25;5.75;;;1.23;;
47309;SDS011;33046;52.270;6.832;2023-03-23T11:32:34;9.50;;;1.80;;
47309;SDS011;33046;52.270;6.832;2023-03-23T11:34:41;5.15;;;1.42;;
47309;SDS011;33046;52.270;6.832;2023-03-23T11:36:50;4.78;;;1.25;;
47309;SDS011;33046;52.270;6.832;2023-03-23T11:38:59;7.00;;;2.05;;
47309;SDS011;33046;52.270;6.832;2023-03-23T11:41:10;3.22;;;0.98;;
47309;SDS011;33046;52.270;6.832;2023-03-23T11:43:18;6.15;;;1.63;;
47309;SDS011;33046;52.270;6.832;2023-03-23T11:45:27;6.53;;;0.90;;
47309;SDS011;33046;52.270;6.832;2023-03-23T11:47:39;4.13;;;1.30;;
47309;SDS011;33046;52.270;6.832;2023-03-23T11:49:50;5.60;;;1.45;;
47309;SDS011;33046;52.270;6.832;2023-03-23T11:52:02;4.25;;;1.42;;
47309;SDS011;33046;52.270;6.832;2023-03-23T11:54:15;5.82;;;1.25;;
47309;SDS011;33046;52.270;6.832;2023-03-23T11:56:28;8.25;;;1.50;;
47309;SDS011;33046;52.270;6.832;2023-03-23T11:58:35;4.45;;;1.15;;
47309;SDS011;33046;52.270;6.832;2023-03-23T12:00:42;7.03;;;1.60;;
47309;SDS011;33046;52.270;6.832;2023-03-23T12:05:38;4.40;;;0.80;;
47309;SDS011;33046;52.270;6.832;2023-03-23T12:07:53;5.50;;;1.00;;
47309;SDS011;33046;52.270;6.832;2023-03-23T12:10:10;5.20;;;1.27;;
47309;SDS011;33046;52.270;6.832;2023-03-23T12:12:30;7.57;;;1.85;;
47309;SDS011;33046;52.270;6.832;2023-03-23T12:14:43;5.35;;;1.65;;
47309;SDS011;33046;52.270;6.832;2023-03-23T12:16:58;7.93;;;1.40;;
47309;SDS011;33046;52.270;6.832;2023-03-23T12:19:13;4.75;;;1.27;;
47309;SDS011;33046;52.270;6.832;2023-03-23T12:21:27;7.25;;;2.85;;
47309;SDS011;33046;52.270;6.832;2023-03-23T12:23:41;4.80;;;1.25;;
47309;SDS011;33046;52.270;6.832;2023-03-23T12:26:05;5.07;;;1.10;;
47309;SDS011;33046;52.270;6.832;2023-03-23T12:28:27;7.55;;;1.20;;
47309;SDS011;33046;52.270;6.832;2023-03-23T12:30:39;4.95;;;1.20;;
47309;SDS011;33046;52.270;6.832;2023-03-23T12:32:55;7.70;;;1.17;;
47309;SDS011;33046;52.270;6.832;2023-03-23T12:35:14;4.05;;;1.52;;
47309;SDS011;33046;52.270;6.832;2023-03-23T12:37:36;5.88;;;1.60;;
47309;SDS011;33046;52.270;6.832;2023-03-23T12:39:53;4.65;;;1.00;;
47309;SDS011;33046;52.270;6.832;2023-03-23T12:42:08;7.35;;;1.92;;
47309;SDS011;33046;52.270;6.832;2023-03-23T12:44:21;3.65;;;0.80;;
47309;SDS011;33046;52.270;6.832;2023-03-23T12:46:49;6.32;;;1.60;;
47309;SDS011;33046;52.270;6.832;2023-03-23T12:49:05;4.30;;;1.20;;
47309;SDS011;33046;52.270;6.832;2023-03-23T12:51:16;5.28;;;1.42;;
47309;SDS011;33046;52.270;6.832;2023-03-23T12:53:27;6.87;;;1.83;;
47309;SDS011;33046;52.270;6.832;2023-03-23T12:55:37;3.97;;;1.00;;
47309;SDS011;33046;52.270;6.832;2023-03-23T12:57:48;6.45;;;0.95;;
47309;SDS011;33046;52.270;6.832;2023-03-23T13:00:02;5.60;;;1.00;;
47309;SDS011;33046;52.270;6.832;2023-03-23T13:02:14;5.18;;;1.25;;
47309;SDS011;33046;52.270;6.832;2023-03-23T13:04:25;7.45;;;1.88;;
47309;SDS011;33046;52.270;6.832;2023-03-23T13:06:36;7.07;;;1.90;;
47309;SDS011;33046;52.270;6.832;2023-03-23T13:08:46;4.38;;;1.80;;
47309;SDS011;33046;52.270;6.832;2023-03-23T13:10:57;4.25;;;1.45;;
47309;SDS011;33046;52.270;6.832;2023-03-23T13:13:06;5.78;;;1.50;;
47309;SDS011;33046;52.270;6.832;2023-03-23T13:15:23;4.82;;;0.98;;
47309;SDS011;33046;52.270;6.832;2023-03-23T13:17:37;5.85;;;0.93;;
47309;SDS011;33046;52.270;6.832;2023-03-23T13:22:39;10.65;;;0.90;;
47309;SDS011;33046;52.270;6.832;2023-03-23T13:24:50;3.67;;;1.25;;
47309;SDS011;33046;52.270;6.832;2023-03-23T13:26:59;6.53;;;2.00;;
47309;SDS011;33046;52.270;6.832;2023-03-23T13:29:05;4.22;;;1.70;;